createdAt,value
2023-04-23T00:00:18.309Z,23.37
2023-04-23T00:02:50.884Z,23.31
2023-04-23T00:05:21.496Z,23.28
2023-04-23T00:07:49.869Z,23.24
2023-04-23T00:10:18.921Z,23.21
2023-04-23T00:12:50.775Z,23.21
2023-04-23T00:15:23.085Z,23.20
2023-04-23T00:17:51.802Z,23.18
2023-04-23T00:20:20.515Z,23.14
2023-04-23T00:22:48.843Z,23.10
2023-04-23T00:25:17.170Z,23.02
2023-04-23T00:27:48.632Z,22.97
2023-04-23T00:30:17.744Z,22.88
2023-04-23T00:32:46.169Z,22.81
2023-04-23T00:35:14.595Z,22.71
2023-04-23T00:37:42.980Z,22.60
2023-04-23T00:40:14.726Z,22.52
2023-04-23T00:42:45.179Z,22.39
2023-04-23T00:45:13.716Z,22.24
2023-04-23T00:47:42.692Z,22.16
2023-04-23T00:50:11.113Z,22.04
2023-04-23T00:52:40.064Z,21.94
2023-04-23T00:55:09.864Z,21.83
2023-04-23T00:57:39.626Z,21.79
2023-04-23T01:00:08.878Z,21.75
2023-04-23T01:02:39.266Z,21.69
2023-04-23T01:05:10.573Z,21.64
2023-04-23T01:07:39.508Z,21.58
2023-04-23T01:10:08.673Z,21.52
2023-04-23T01:12:37.017Z,21.47
2023-04-23T01:15:06.866Z,21.43
2023-04-23T01:17:35.220Z,21.39
2023-04-23T01:20:03.877Z,21.35
2023-04-23T01:22:32.147Z,21.27
2023-04-23T01:25:00.765Z,21.23
2023-04-23T01:27:29.072Z,21.21
2023-04-23T01:29:57.670Z,21.16
2023-04-23T01:32:26.316Z,21.15
2023-04-23T01:34:56.097Z,21.15
2023-04-23T01:37:26.207Z,21.13
2023-04-23T01:39:54.625Z,21.10
2023-04-23T01:42:26.634Z,21.06
2023-04-23T01:44:55.552Z,21.04
2023-04-23T01:47:24.133Z,21.01
2023-04-23T01:49:53.009Z,20.98
2023-04-23T01:52:21.372Z,20.98
2023-04-23T01:54:49.638Z,20.96
2023-04-23T01:57:24.877Z,20.94
2023-04-23T01:59:53.526Z,20.91
2023-04-23T02:02:22.774Z,20.88
2023-04-23T02:04:54.101Z,20.89
2023-04-23T02:07:22.409Z,20.89
2023-04-23T02:09:50.643Z,20.85
2023-04-23T02:12:19.071Z,20.81
2023-04-23T02:14:47.354Z,20.79
2023-04-23T02:17:15.856Z,20.75
2023-04-23T02:19:44.584Z,20.73
2023-04-23T02:22:12.953Z,20.72
2023-04-23T02:24:43.974Z,20.70
2023-04-23T02:27:12.963Z,20.66
2023-04-23T02:29:42.101Z,20.64
2023-04-23T02:32:10.920Z,20.63
2023-04-23T02:34:39.558Z,20.64
2023-04-23T02:37:08.121Z,20.61
2023-04-23T02:39:36.595Z,20.58
2023-04-23T02:42:05.186Z,20.55
2023-04-23T02:44:33.551Z,20.53
2023-04-23T02:47:02.473Z,20.52
2023-04-23T02:49:31.442Z,20.51
2023-04-23T02:51:59.914Z,20.49
2023-04-23T02:54:28.183Z,20.48
2023-04-23T02:56:58.297Z,20.44
2023-04-23T02:59:26.942Z,20.41
2023-04-23T03:01:55.305Z,20.38
2023-04-23T03:04:23.945Z,20.34
2023-04-23T03:06:52.302Z,20.31
2023-04-23T03:09:20.634Z,20.29
2023-04-23T03:11:49.410Z,20.28
2023-04-23T03:14:17.656Z,20.26
2023-04-23T03:16:46.200Z,20.25
2023-04-23T03:19:14.636Z,20.22
2023-04-23T03:21:42.979Z,20.22
2023-04-23T03:24:14.136Z,20.18
2023-04-23T03:26:42.368Z,20.17
2023-04-23T03:29:11.611Z,20.13
2023-04-23T03:31:39.894Z,20.11
2023-04-23T03:34:08.131Z,20.10
2023-04-23T03:36:36.412Z,20.09
2023-04-23T03:39:04.687Z,20.07
2023-04-23T03:41:32.951Z,20.05
2023-04-23T03:44:01.437Z,20.02
2023-04-23T03:46:29.901Z,19.98
2023-04-23T03:48:58.189Z,19.95
2023-04-23T03:51:26.418Z,19.96
2023-04-23T03:53:55.262Z,19.97
2023-04-23T03:56:24.594Z,19.95
2023-04-23T03:58:55.407Z,19.87
2023-04-23T04:01:23.782Z,19.80
2023-04-23T04:03:52.333Z,19.78
2023-04-23T04:06:20.840Z,19.78
2023-04-23T04:08:49.189Z,19.75
2023-04-23T04:11:17.556Z,19.74
2023-04-23T04:13:45.870Z,19.74
2023-04-23T04:16:14.122Z,19.73
2023-04-23T04:18:42.971Z,19.74
2023-04-23T04:21:11.281Z,19.71
2023-04-23T04:23:41.112Z,19.68
2023-04-23T04:26:09.367Z,19.62
2023-04-23T04:28:38.602Z,19.59
2023-04-23T04:31:07.733Z,19.58
2023-04-23T04:33:36.885Z,19.57
2023-04-23T04:36:05.836Z,19.56
2023-04-23T04:38:34.141Z,19.54
2023-04-23T04:41:03.032Z,19.50
2023-04-23T04:43:31.363Z,19.47
2023-04-23T04:46:03.792Z,19.40
2023-04-23T04:48:32.938Z,19.28
2023-04-23T04:51:01.224Z,19.10
2023-04-23T04:53:29.525Z,19.04
2023-04-23T04:55:57.875Z,19.01
2023-04-23T04:58:26.167Z,19.04
2023-04-23T05:00:56.634Z,19.04
2023-04-23T05:03:25.540Z,19.05
2023-04-23T05:05:57.295Z,19.06
2023-04-23T05:08:26.375Z,19.09
2023-04-23T05:10:57.740Z,19.05
2023-04-23T05:13:26.469Z,19.05
2023-04-23T05:15:54.755Z,19.05
2023-04-23T05:18:23.235Z,19.04
2023-04-23T05:20:51.757Z,19.02
2023-04-23T05:23:20.170Z,18.96
2023-04-23T05:25:48.449Z,18.89
2023-04-23T05:28:17.220Z,18.82
2023-04-23T05:30:45.825Z,18.78
2023-04-23T05:33:14.162Z,18.77
2023-04-23T05:35:42.560Z,18.72
2023-04-23T05:38:11.363Z,18.73
2023-04-23T05:40:40.692Z,18.64
2023-04-23T05:43:08.996Z,18.66
2023-04-23T05:45:37.307Z,18.69
2023-04-23T05:48:06.148Z,18.74
2023-04-23T05:50:34.540Z,18.70
2023-04-23T05:53:05.473Z,18.51
2023-04-23T05:55:33.723Z,18.31
2023-04-23T05:58:01.985Z,18.16
2023-04-23T06:00:30.295Z,18.03
2023-04-23T06:02:58.638Z,17.99
2023-04-23T06:05:27.017Z,18.02
2023-04-23T06:07:55.480Z,18.06
2023-04-23T06:10:24.286Z,18.14
2023-04-23T06:12:54.949Z,18.21
2023-04-23T06:15:27.740Z,18.17
2023-04-23T06:17:56.130Z,18.10
2023-04-23T06:20:24.460Z,18.04
2023-04-23T06:22:52.717Z,17.98
2023-04-23T06:25:21.184Z,18.04
2023-04-23T06:27:49.950Z,18.18
2023-04-23T06:30:18.220Z,18.33
2023-04-23T06:32:46.601Z,18.42
2023-04-23T06:35:14.890Z,18.48
2023-04-23T06:37:43.215Z,18.50
2023-04-23T06:40:12.072Z,18.53
2023-04-23T06:42:40.396Z,18.54
2023-04-23T06:45:09.144Z,18.55
2023-04-23T06:47:37.414Z,18.54
2023-04-23T06:50:06.819Z,18.55
2023-04-23T06:52:35.251Z,18.57
2023-04-23T06:55:03.662Z,18.59
2023-04-23T06:57:31.940Z,18.59
2023-04-23T07:00:01.171Z,18.59
2023-04-23T07:02:29.549Z,18.58
2023-04-23T07:04:58.127Z,18.58
2023-04-23T07:07:26.952Z,18.54
2023-04-23T07:09:55.653Z,18.52
2023-04-23T07:12:24.113Z,18.51
2023-04-23T07:14:54.478Z,18.53
2023-04-23T07:17:22.799Z,18.47
2023-04-23T07:19:51.536Z,18.43
2023-04-23T07:22:19.827Z,18.42
2023-04-23T07:24:48.122Z,18.42
2023-04-23T07:27:16.362Z,18.39
2023-04-23T07:29:44.657Z,18.36
2023-04-23T07:32:13.007Z,18.36
2023-04-23T07:34:41.734Z,18.33
2023-04-23T07:37:10.470Z,18.24
2023-04-23T07:39:38.731Z,18.07
2023-04-23T07:42:07.051Z,17.99
2023-04-23T07:44:35.269Z,17.90
2023-04-23T07:47:03.524Z,17.96
2023-04-23T07:49:32.238Z,17.91
2023-04-23T07:52:00.482Z,17.76
2023-04-23T07:54:29.426Z,17.58
2023-04-23T07:56:58.328Z,17.43
2023-04-23T07:59:26.550Z,17.37
2023-04-23T08:01:54.801Z,17.30
2023-04-23T08:04:23.643Z,17.24
2023-04-23T08:06:52.675Z,17.17
2023-04-23T08:09:20.901Z,17.14
2023-04-23T08:11:49.303Z,17.10
2023-04-23T08:14:17.559Z,17.03
2023-04-23T08:16:46.273Z,16.99
2023-04-23T08:19:14.497Z,16.93
2023-04-23T08:21:43.284Z,16.89
2023-04-23T08:24:11.637Z,16.87
2023-04-23T08:26:39.890Z,16.86
2023-04-23T08:29:10.168Z,16.83
2023-04-23T08:31:39.725Z,16.79
2023-04-23T08:34:08.105Z,16.74
2023-04-23T08:36:37.014Z,16.79
2023-04-23T08:39:06.762Z,16.83
2023-04-23T08:41:43.602Z,16.87
2023-04-23T08:44:22.945Z,16.88
2023-04-23T08:46:51.895Z,16.85
2023-04-23T08:49:20.810Z,16.86
2023-04-23T08:51:53.844Z,16.93
2023-04-23T08:54:29.465Z,16.92
2023-04-23T08:56:59.579Z,16.93
2023-04-23T08:59:30.007Z,16.87
2023-04-23T09:02:00.676Z,16.85
2023-04-23T09:04:30.236Z,16.78
2023-04-23T09:06:59.816Z,16.71
2023-04-23T09:09:30.545Z,16.64
2023-04-23T09:11:59.468Z,16.55
2023-04-23T09:14:27.826Z,16.50
2023-04-23T09:16:56.765Z,16.49
2023-04-23T09:19:28.648Z,16.47
2023-04-23T09:21:58.477Z,16.49
2023-04-23T09:24:27.237Z,16.51
2023-04-23T09:26:55.931Z,16.55
2023-04-23T09:29:25.515Z,16.63
2023-04-23T09:31:56.486Z,16.72
2023-04-23T09:34:26.455Z,16.78
2023-04-23T09:36:54.910Z,16.95
2023-04-23T09:39:24.712Z,17.06
2023-04-23T09:41:54.541Z,17.08
2023-04-23T09:44:23.983Z,17.10
2023-04-23T09:46:52.342Z,17.14
2023-04-23T09:49:20.887Z,17.16
2023-04-23T09:51:50.634Z,17.22
2023-04-23T09:54:23.749Z,17.27
2023-04-23T09:56:54.694Z,17.30
2023-04-23T10:02:07.546Z,17.35
2023-04-23T10:04:36.777Z,17.33
2023-04-23T10:07:18.938Z,17.33
2023-04-23T10:09:48.891Z,17.35
2023-04-23T10:12:35.695Z,17.35
2023-04-23T10:15:08.376Z,17.35
2023-04-23T10:17:38.293Z,17.36
2023-04-23T10:20:08.482Z,17.33
2023-04-23T10:22:39.263Z,17.29
2023-04-23T10:25:12.056Z,17.20
2023-04-23T10:27:52.950Z,17.09
2023-04-23T10:30:23.680Z,16.97
2023-04-23T10:32:52.384Z,16.97
2023-04-23T10:35:20.745Z,17.03
2023-04-23T10:37:49.763Z,17.03
2023-04-23T10:40:25.795Z,16.93
2023-04-23T10:42:54.825Z,16.75
2023-04-23T10:45:25.270Z,16.66
2023-04-23T10:47:57.137Z,16.65
2023-04-23T10:50:30.657Z,16.56
2023-04-23T10:52:59.651Z,16.45
2023-04-23T10:55:29.625Z,16.37
2023-04-23T10:58:09.120Z,16.30
2023-04-23T11:00:46.430Z,16.24
2023-04-23T11:03:41.549Z,16.18
2023-04-23T11:08:36.921Z,15.92
2023-04-23T11:11:10.571Z,15.84
2023-04-23T11:13:54.204Z,15.83
2023-04-23T11:16:24.776Z,15.76
2023-04-23T11:18:59.886Z,15.72
2023-04-23T11:22:03.084Z,15.66
2023-04-23T11:24:43.298Z,15.61
2023-04-23T11:27:13.357Z,15.61
2023-04-23T11:29:44.588Z,15.58
2023-04-23T11:32:15.149Z,15.57
2023-04-23T11:34:45.874Z,15.52
2023-04-23T11:37:16.259Z,15.49
2023-04-23T11:39:46.108Z,15.47
2023-04-23T11:42:20.951Z,15.45
2023-04-23T11:44:49.475Z,15.44
2023-04-23T11:47:19.486Z,15.43
2023-04-23T11:49:49.296Z,15.35
2023-04-23T11:52:17.733Z,15.37
2023-04-23T11:54:46.189Z,15.36
2023-04-23T11:57:15.473Z,15.34
2023-04-23T11:59:44.391Z,15.31
2023-04-23T12:02:13.073Z,15.30
2023-04-23T12:04:41.815Z,15.28
2023-04-23T12:07:19.698Z,15.32
2023-04-23T12:09:53.920Z,15.34
2023-04-23T12:12:22.291Z,15.40
2023-04-23T12:14:50.542Z,15.46
2023-04-23T12:17:18.822Z,15.52
2023-04-23T12:19:47.084Z,15.58
2023-04-23T12:22:15.369Z,15.62
2023-04-23T12:24:49.784Z,15.60
2023-04-23T12:27:22.852Z,15.53
2023-04-23T12:30:00.312Z,15.45
2023-04-23T12:32:28.586Z,15.42
2023-04-23T12:34:57.559Z,15.40
2023-04-23T12:37:30.529Z,15.37
2023-04-23T12:40:00.262Z,15.36
2023-04-23T12:42:28.784Z,15.34
2023-04-23T12:45:05.903Z,15.28
2023-04-23T12:47:34.221Z,15.25
2023-04-23T12:50:04.667Z,15.28
2023-04-23T12:52:33.141Z,15.45
2023-04-23T12:55:02.625Z,15.60
2023-04-23T12:57:30.857Z,15.59
2023-04-23T12:59:59.118Z,15.56
2023-04-23T13:02:27.715Z,15.53
2023-04-23T13:05:01.644Z,15.72
2023-04-23T13:07:30.036Z,15.77
2023-04-23T13:10:00.267Z,15.74
2023-04-23T13:12:29.505Z,15.79
2023-04-23T13:14:57.903Z,15.86
2023-04-23T13:17:27.273Z,15.85
2023-04-23T13:19:56.866Z,15.86
2023-04-23T13:22:29.276Z,15.80
2023-04-23T13:25:00.892Z,15.77
2023-04-23T13:27:31.757Z,15.73
2023-04-23T13:30:00.679Z,15.71
2023-04-23T13:32:32.828Z,15.72
2023-04-23T13:35:03.699Z,15.68
2023-04-23T13:37:33.062Z,15.57
2023-04-23T13:40:01.417Z,15.50
2023-04-23T13:42:29.726Z,15.47
2023-04-23T13:44:58.643Z,15.46
2023-04-23T13:47:31.462Z,15.41
2023-04-23T13:50:00.414Z,15.34
2023-04-23T13:52:28.853Z,15.31
2023-04-23T13:54:57.956Z,15.38
2023-04-23T13:57:26.328Z,15.41
2023-04-23T13:59:56.290Z,15.48
2023-04-23T14:02:25.043Z,15.49
2023-04-23T14:04:53.562Z,15.46
2023-04-23T14:07:22.054Z,15.52
2023-04-23T14:09:53.567Z,15.61
2023-04-23T14:12:22.296Z,15.67
2023-04-23T14:14:51.630Z,15.69
2023-04-23T14:17:19.868Z,15.74
2023-04-23T14:19:48.689Z,15.72
2023-04-23T14:22:17.045Z,15.70
2023-04-23T14:24:51.954Z,15.67
2023-04-23T14:27:20.247Z,15.64
2023-04-23T14:29:57.702Z,15.64
2023-04-23T14:32:26.003Z,15.69
2023-04-23T14:34:54.271Z,15.73
2023-04-23T14:37:22.564Z,15.72
2023-04-23T14:39:50.810Z,15.67
2023-04-23T14:42:19.637Z,15.67
2023-04-23T14:44:47.901Z,15.77
2023-04-23T14:47:16.872Z,15.85
2023-04-23T14:49:46.459Z,15.90
2023-04-23T14:52:14.983Z,15.93
2023-04-23T14:54:43.383Z,15.94
2023-04-23T14:57:11.655Z,15.94
2023-04-23T14:59:40.047Z,15.94
2023-04-23T15:02:09.499Z,15.94
2023-04-23T15:04:38.042Z,15.94
2023-04-23T15:07:06.714Z,15.96
2023-04-23T15:09:34.910Z,15.99
2023-04-23T15:12:04.732Z,15.98
2023-04-23T15:14:38.565Z,15.99
2023-04-23T15:17:07.245Z,15.93
2023-04-23T15:19:35.614Z,15.91
2023-04-23T15:22:04.009Z,15.93
2023-04-23T15:24:32.343Z,15.94
2023-04-23T15:27:01.675Z,15.94
2023-04-23T15:29:30.930Z,15.98
2023-04-23T15:32:00.474Z,16.04
2023-04-23T15:34:28.766Z,16.10
2023-04-23T15:36:56.996Z,16.17
2023-04-23T15:39:25.705Z,16.25
2023-04-23T15:41:54.635Z,16.42
2023-04-23T15:44:23.047Z,16.61
2023-04-23T15:46:51.352Z,16.78
2023-04-23T15:49:19.738Z,16.93
2023-04-23T15:51:48.236Z,17.09
2023-04-23T15:54:16.528Z,17.27
2023-04-23T15:56:44.736Z,17.41
2023-04-23T15:59:13.083Z,17.56
2023-04-23T16:01:44.750Z,17.73
2023-04-23T16:04:13.408Z,17.90
2023-04-23T16:06:41.851Z,17.95
2023-04-23T16:09:10.694Z,17.75
2023-04-23T16:11:39.722Z,17.62
2023-04-23T16:14:10.123Z,17.49
2023-04-23T16:16:39.602Z,17.46
2023-04-23T16:19:07.985Z,17.47
2023-04-23T16:21:36.510Z,17.39
2023-04-23T16:24:05.776Z,17.28
2023-04-23T16:26:34.273Z,17.20
2023-04-23T16:29:16.731Z,17.22
2023-04-23T16:31:49.484Z,17.30
2023-04-23T16:34:18.112Z,17.27
2023-04-23T16:36:46.565Z,17.39
2023-04-23T16:39:15.010Z,17.64
2023-04-23T16:41:43.909Z,17.72
2023-04-23T16:44:12.244Z,17.89
2023-04-23T16:46:40.885Z,18.00
2023-04-23T16:49:09.420Z,17.97
2023-04-23T16:51:37.687Z,17.90
2023-04-23T16:54:06.121Z,17.94
2023-04-23T16:56:35.067Z,18.17
2023-04-23T16:59:03.954Z,18.36
2023-04-23T17:01:32.435Z,18.53
2023-04-23T17:04:00.872Z,18.68
2023-04-23T17:06:39.510Z,18.67
2023-04-23T17:09:10.915Z,18.60
2023-04-23T17:11:39.273Z,18.63
2023-04-23T17:14:07.514Z,18.86
2023-04-23T17:16:35.946Z,18.93
2023-04-23T17:19:04.265Z,18.92
2023-04-23T17:21:33.244Z,18.97
2023-04-23T17:24:01.610Z,18.92
2023-04-23T17:26:29.927Z,18.80
2023-04-23T17:28:58.522Z,18.76
2023-04-23T17:31:27.468Z,18.82
2023-04-23T17:33:57.289Z,18.84
2023-04-23T17:36:25.553Z,18.72
2023-04-23T17:38:53.807Z,18.59
2023-04-23T17:41:23.662Z,18.55
2023-04-23T17:43:52.244Z,18.36
2023-04-23T17:46:20.741Z,18.29
2023-04-23T17:48:49.304Z,18.28
2023-04-23T17:51:17.740Z,18.20
2023-04-23T17:53:49.421Z,18.28
2023-04-23T17:56:18.055Z,18.41
2023-04-23T17:58:46.377Z,18.52
2023-04-23T18:01:14.726Z,18.55
2023-04-23T18:03:43.402Z,18.63
2023-04-23T18:06:12.142Z,18.74
2023-04-23T18:08:42.642Z,18.66
2023-04-23T18:11:11.354Z,18.54
2023-04-23T18:13:54.326Z,18.67
2023-04-23T18:16:22.850Z,19.16
2023-04-23T18:18:54.091Z,19.59
2023-04-23T18:21:23.842Z,19.73
2023-04-23T18:23:55.375Z,19.85
2023-04-23T18:26:24.822Z,19.72
2023-04-23T18:28:56.966Z,19.51
2023-04-23T18:31:25.475Z,19.44
2023-04-23T18:34:03.176Z,19.55
2023-04-23T18:36:56.871Z,19.94
2023-04-23T18:39:25.186Z,20.01
2023-04-23T18:41:53.795Z,20.04
2023-04-23T18:44:22.673Z,20.36
2023-04-23T18:46:51.471Z,20.79
2023-04-23T18:49:34.321Z,21.04
2023-04-23T18:52:03.080Z,21.25
2023-04-23T18:54:31.461Z,21.41
2023-04-23T18:56:59.734Z,21.48
2023-04-23T18:59:28.446Z,21.58
2023-04-23T19:01:57.577Z,21.52
2023-04-23T19:04:26.194Z,21.42
2023-04-23T19:06:54.761Z,21.41
2023-04-23T19:09:24.500Z,21.29
2023-04-23T19:11:52.798Z,21.09
2023-04-23T19:14:21.296Z,21.03
2023-04-23T19:16:51.776Z,21.19
2023-04-23T19:19:20.308Z,21.19
2023-04-23T19:21:48.670Z,21.39
2023-04-23T19:24:17.519Z,21.33
2023-04-23T19:26:46.757Z,21.14
2023-04-23T19:29:15.167Z,21.02
2023-04-23T19:31:43.569Z,20.98
2023-04-23T19:34:12.010Z,21.34
2023-04-23T19:36:40.535Z,21.71
2023-04-23T19:39:08.721Z,22.04
2023-04-23T19:41:37.169Z,22.08
2023-04-23T19:44:05.471Z,22.23
2023-04-23T19:46:33.736Z,22.42
2023-04-23T19:49:02.299Z,22.57
2023-04-23T19:51:36.200Z,22.47
2023-04-23T19:54:05.298Z,22.33
2023-04-23T19:56:34.626Z,22.56
2023-04-23T19:59:03.130Z,22.68
2023-04-23T20:01:32.229Z,22.74
2023-04-23T20:04:00.958Z,22.73
2023-04-23T20:06:29.991Z,22.92
2023-04-23T20:09:09.455Z,22.69
2023-04-23T20:11:38.200Z,22.61
2023-04-23T20:14:06.932Z,22.76
2023-04-23T20:16:35.726Z,22.57
2023-04-23T20:19:05.890Z,22.24
2023-04-23T20:21:34.382Z,22.03
2023-04-23T20:24:02.645Z,22.22
2023-04-23T20:26:30.956Z,22.44
2023-04-23T20:28:59.761Z,22.70
2023-04-23T20:31:28.351Z,22.95
2023-04-23T20:33:57.638Z,23.21
2023-04-23T20:36:29.595Z,23.35
2023-04-23T20:39:01.962Z,23.12
2023-04-23T20:41:33.095Z,22.95
2023-04-23T20:44:02.929Z,22.85
2023-04-23T20:46:32.924Z,22.70
2023-04-23T20:49:05.298Z,22.61
2023-04-23T20:51:36.725Z,22.67
2023-04-23T20:54:05.781Z,22.80
2023-04-23T20:56:34.289Z,22.79
2023-04-23T20:59:02.753Z,22.63
2023-04-23T21:01:31.297Z,22.54
2023-04-23T21:04:01.845Z,22.57
2023-04-23T21:06:32.208Z,22.58
2023-04-23T21:09:00.698Z,22.52
2023-04-23T21:11:29.250Z,22.52
2023-04-23T21:14:00.172Z,22.52
2023-04-23T21:16:29.660Z,22.49
2023-04-23T21:18:58.074Z,22.57
2023-04-23T21:21:28.796Z,22.63
2023-04-23T21:23:57.479Z,22.73
2023-04-23T21:26:26.151Z,22.74
2023-04-23T21:28:55.260Z,22.62
2023-04-23T21:31:36.755Z,22.49
2023-04-23T21:34:05.164Z,22.59
2023-04-23T21:36:33.505Z,22.71
2023-04-23T21:39:02.774Z,22.83
2023-04-23T21:41:31.682Z,22.82
2023-04-23T21:44:00.052Z,22.86
2023-04-23T21:46:32.907Z,22.83
2023-04-23T21:49:01.846Z,22.86
2023-04-23T21:51:30.837Z,22.88
2023-04-23T21:54:00.306Z,22.77
2023-04-23T21:56:30.934Z,22.69
2023-04-23T21:58:59.231Z,22.64
2023-04-23T22:01:27.901Z,22.66
2023-04-23T22:03:59.974Z,22.62
2023-04-23T22:06:28.679Z,22.54
2023-04-23T22:08:58.031Z,22.51
2023-04-23T22:11:27.051Z,22.42
2023-04-23T22:13:55.480Z,22.39
2023-04-23T22:16:28.198Z,22.48
2023-04-23T22:19:01.391Z,22.48
2023-04-23T22:21:30.371Z,22.43
2023-04-23T22:24:01.409Z,22.25
2023-04-23T22:26:35.356Z,22.20
2023-04-23T22:29:04.003Z,22.25
2023-04-23T22:31:32.487Z,22.23
2023-04-23T22:34:03.518Z,22.22
2023-04-23T22:36:33.732Z,22.22
2023-04-23T22:39:02.860Z,22.16
2023-04-23T22:41:33.098Z,22.14
2023-04-23T22:44:01.918Z,22.14
2023-04-23T22:46:32.662Z,22.27
2023-04-23T22:49:02.070Z,22.39
2023-04-23T22:51:34.191Z,22.51
2023-04-23T22:54:02.547Z,22.59
2023-04-23T22:56:31.398Z,22.62
2023-04-23T22:58:59.631Z,22.66
2023-04-23T23:01:27.982Z,22.68
2023-04-23T23:03:56.473Z,22.67
2023-04-23T23:06:24.898Z,22.62
2023-04-23T23:08:53.685Z,22.57
2023-04-23T23:11:22.200Z,22.55
2023-04-23T23:13:51.095Z,22.52
2023-04-23T23:16:19.766Z,22.51
2023-04-23T23:18:48.242Z,22.50
2023-04-23T23:21:17.475Z,22.45
2023-04-23T23:23:45.833Z,22.44
2023-04-23T23:26:14.232Z,22.44
2023-04-23T23:28:42.571Z,22.40
2023-04-23T23:31:11.009Z,22.36
2023-04-23T23:33:40.544Z,22.32
2023-04-23T23:36:09.612Z,22.26
2023-04-23T23:38:37.922Z,22.21
2023-04-23T23:41:06.233Z,22.15
2023-04-23T23:43:34.462Z,22.09
2023-04-23T23:46:06.443Z,22.04
2023-04-23T23:51:06.158Z,21.97
2023-04-23T23:53:34.634Z,21.91
2023-04-23T23:56:06.025Z,21.88
2023-04-23T23:58:37.491Z,21.82
